Killian, South Carolina
Current Conditions -  °F | °C
As of 4:39 PM on Monday 24 Nov 2014 (Local Time) from KCUB Reporting Station
Scattered Clouds Scattered Clouds  
Wind Chill: 71°   Ceiling: Unl
Heat Index: 71°   Visibility: 10mi
Dew Point: 64°   Wind: 8mph
Humidity: 78%   Direction: 170°S
Pressure: 29.83"   Gusts: NA
Location:  34.1179°N, 81.0612°W
Report Text: KCUB 242139Z AUTO 17007KT 10SM FEW050 FEW070 SCT100 22/18 A2983 RMK AO2 LTG DSNT N AND NE RAB19E38 TSB01E16 P0000 T02170178
Loading
Personal Weather Stations






























Interactive Weather Map New forecast layout! Learn more

10-Day Weather Forecast

Advertisements
Track Severe Weather on mobile